createdAt,value
2022-09-17T00:00:20.725Z,4
2022-09-17T00:02:31.317Z,4.9
2022-09-17T00:04:24.349Z,4.8
2022-09-17T00:06:24.653Z,4.7
2022-09-17T00:08:24.438Z,5.9
2022-09-17T00:10:22.050Z,4.4
2022-09-17T00:12:27.262Z,4.7
2022-09-17T00:14:23.312Z,4.9
2022-09-17T00:16:27.078Z,4.5
2022-09-17T00:18:25.048Z,3.9
2022-09-17T00:20:27.908Z,4.1
2022-09-17T00:22:22.647Z,4.8
2022-09-17T00:24:23.296Z,4.5
2022-09-17T00:26:27.852Z,4.3
2022-09-17T00:28:23.860Z,4.6
2022-09-17T00:30:23.083Z,4.9
2022-09-17T00:32:29.514Z,5
2022-09-17T00:34:24.576Z,5.3
2022-09-17T00:36:24.221Z,4.1
2022-09-17T00:38:27.895Z,3.8
2022-09-17T00:40:21.162Z,4.3
2022-09-17T00:42:27.175Z,4
2022-09-17T00:44:25.176Z,4.3
2022-09-17T00:46:26.587Z,5.2
2022-09-17T00:48:24.413Z,4.2
2022-09-17T00:50:27.698Z,4.1
2022-09-17T00:52:26.740Z,4.3
2022-09-17T00:54:25.268Z,4.6
2022-09-17T00:56:27.099Z,4.8
2022-09-17T00:58:24.293Z,4.3
2022-09-17T01:00:24.517Z,4.6
2022-09-17T01:02:29.529Z,5.3
2022-09-17T01:04:25.626Z,5
2022-09-17T01:08:25.410Z,5.4
2022-09-17T01:10:28.912Z,4.9
2022-09-17T01:12:25.906Z,5
2022-09-17T01:14:25.291Z,4.8
2022-09-17T01:16:25.961Z,5.3
2022-09-17T01:18:26.004Z,5.4
2022-09-17T01:20:28.151Z,5
2022-09-17T01:24:26.992Z,6
2022-09-17T01:26:27.349Z,5.7
2022-09-17T01:28:27.527Z,5.5
2022-09-17T01:30:26.239Z,5.3
2022-09-17T01:32:25.853Z,5.1
2022-09-17T01:34:22.841Z,5.2
2022-09-17T01:36:24.337Z,5.1
2022-09-17T01:40:24.650Z,4.8
2022-09-17T01:42:24.827Z,5.3
2022-09-17T01:46:21.633Z,4.7
2022-09-17T01:48:27.086Z,5
2022-09-17T01:50:28.022Z,4.9
2022-09-17T01:54:25.442Z,4.8
2022-09-17T01:56:21.210Z,5.4
2022-09-17T01:58:28.436Z,5.7
2022-09-17T02:00:24.123Z,5.2
2022-09-17T02:02:20.607Z,5.3
2022-09-17T02:04:25.263Z,5.2
2022-09-17T02:06:27.720Z,5
2022-09-17T02:08:26.729Z,5.3
2022-09-17T02:10:24.621Z,5
2022-09-17T02:12:28.937Z,4.8
2022-09-17T02:14:19.533Z,5.4
2022-09-17T02:20:30.448Z,5.3
2022-09-17T02:22:24.426Z,4.6
2022-09-17T02:24:22.097Z,5.3
2022-09-17T02:26:23.837Z,6.1
2022-09-17T02:28:27.117Z,4.5
2022-09-17T02:30:30.512Z,4.7
2022-09-17T02:32:27.074Z,5.9
2022-09-17T02:34:23.987Z,5.2
2022-09-17T02:38:24.373Z,4.8
2022-09-17T02:40:27.248Z,5.2
2022-09-17T02:42:26.805Z,4.5
2022-09-17T02:44:25.438Z,6.2
2022-09-17T02:46:24.861Z,4.9
2022-09-17T02:48:28.177Z,4.8
2022-09-17T02:50:27.059Z,6
2022-09-17T02:52:26.619Z,6.4
2022-09-17T02:54:25.836Z,4.5
2022-09-17T02:56:26.621Z,5.3
2022-09-17T02:58:26.810Z,5.5
2022-09-17T03:00:28.789Z,4.4
2022-09-17T03:02:26.155Z,4.7
2022-09-17T03:04:23.650Z,4.8
2022-09-17T03:06:19.924Z,5.9
2022-09-17T03:08:24.820Z,5.1
2022-09-17T03:10:26.849Z,4.8
2022-09-17T03:12:27.742Z,4.5
2022-09-17T03:14:23.234Z,5.4
2022-09-17T03:16:25.027Z,5.6
2022-09-17T03:18:23.810Z,4.4
2022-09-17T03:20:27.090Z,4.5
2022-09-17T03:24:23.261Z,4.8
2022-09-17T03:28:27.427Z,5.1
2022-09-17T03:30:27.145Z,4.9
2022-09-17T03:32:27.347Z,5.4
2022-09-17T03:34:23.900Z,5.5
2022-09-17T03:36:23.593Z,4.2
2022-09-17T03:38:26.709Z,5.1
2022-09-17T03:40:24.798Z,5
2022-09-17T03:42:26.962Z,4.9
2022-09-17T03:44:23.359Z,4.4
2022-09-17T03:46:24.071Z,4.9
2022-09-17T03:48:24.920Z,3.7
2022-09-17T03:50:24.831Z,4.5
2022-09-17T03:52:20.845Z,4.1
2022-09-17T03:54:27.233Z,4.3
2022-09-17T03:56:24.337Z,4.8
2022-09-17T03:58:27.972Z,4.9
2022-09-17T04:00:24.483Z,4.5
2022-09-17T04:02:26.214Z,4
2022-09-17T04:04:22.989Z,3.5
2022-09-17T04:06:25.024Z,4.2
2022-09-17T04:08:24.698Z,4.3
2022-09-17T04:10:28.134Z,3.8
2022-09-17T04:12:28.556Z,4.7
2022-09-17T04:14:22.498Z,4.1
2022-09-17T04:16:24.155Z,4.5
2022-09-17T04:18:24.438Z,3.9
2022-09-17T04:20:23.824Z,3.8
2022-09-17T04:24:26.672Z,4
2022-09-17T04:26:28.425Z,4.4
2022-09-17T04:28:28.181Z,4.5
2022-09-17T04:30:23.318Z,4.2
2022-09-17T04:32:25.235Z,4
2022-09-17T04:34:24.900Z,5.1
2022-09-17T04:36:24.579Z,4.4
2022-09-17T04:38:24.712Z,4.3
2022-09-17T04:40:23.662Z,4.6
2022-09-17T04:42:26.779Z,4.7
2022-09-17T04:44:23.330Z,5
2022-09-17T04:46:26.368Z,4.2
2022-09-17T04:48:27.727Z,4.1
2022-09-17T04:50:24.515Z,5.1
2022-09-17T04:52:30.768Z,4.5
2022-09-17T04:54:24.915Z,4.6
2022-09-17T04:56:20.857Z,3.9
2022-09-17T04:58:25.266Z,4.4
2022-09-17T05:00:24.049Z,4.6
2022-09-17T05:02:24.895Z,3.9
2022-09-17T05:04:24.635Z,4.1
2022-09-17T05:06:26.585Z,4.6
2022-09-17T05:08:28.007Z,4.4
2022-09-17T05:10:27.281Z,4
2022-09-17T05:14:21.927Z,3.9
2022-09-17T05:16:25.810Z,4.4
2022-09-17T05:18:27.266Z,4.2
2022-09-17T05:20:26.196Z,4.6
2022-09-17T05:22:26.908Z,3.9
2022-09-17T05:26:21.922Z,3.6
2022-09-17T05:28:23.528Z,4.8
2022-09-17T05:30:28.415Z,4
2022-09-17T05:32:25.370Z,4.1
2022-09-17T05:34:25.697Z,3.7
2022-09-17T05:36:27.626Z,4
2022-09-17T05:38:27.764Z,4.2
2022-09-17T05:42:25.867Z,4
2022-09-17T05:44:25.192Z,3.8
2022-09-17T05:46:26.018Z,4.3
2022-09-17T05:48:26.814Z,4.1
2022-09-17T05:50:27.195Z,4.8
2022-09-17T05:52:24.774Z,4.9
2022-09-17T05:54:26.129Z,3.7
2022-09-17T05:56:25.788Z,4.5
2022-09-17T05:58:25.843Z,4.3
2022-09-17T06:00:26.676Z,4.1
2022-09-17T06:02:28.096Z,3.5
2022-09-17T06:04:20.111Z,3.9
2022-09-17T06:06:20.656Z,5.1
2022-09-17T06:08:27.518Z,3.4
2022-09-17T06:10:27.312Z,4.6
2022-09-17T06:12:27.944Z,3.9
2022-09-17T06:14:25.102Z,4.1
2022-09-17T06:16:25.391Z,3.9
2022-09-17T06:18:26.581Z,3.5
2022-09-17T06:20:27.262Z,3.9
2022-09-17T06:24:23.519Z,3.8
2022-09-17T06:26:27.711Z,4.8
2022-09-17T06:28:25.831Z,3.5
2022-09-17T06:32:24.927Z,5.1
2022-09-17T06:34:22.178Z,3.6
2022-09-17T06:36:25.340Z,4
2022-09-17T06:38:25.461Z,3.3
2022-09-17T06:40:25.466Z,3.8
2022-09-17T06:42:25.129Z,3.5
2022-09-17T06:44:23.924Z,3.6
2022-09-17T06:46:25.328Z,4.4
2022-09-17T06:48:29.308Z,3.6
2022-09-17T06:50:27.880Z,4.2
2022-09-17T06:52:26.124Z,3.9
2022-09-17T06:54:23.970Z,3.5
2022-09-17T06:56:21.517Z,3.9
2022-09-17T06:58:25.862Z,4.2
2022-09-17T07:00:24.337Z,4
2022-09-17T07:02:25.932Z,3.9
2022-09-17T07:04:26.289Z,4.1
2022-09-17T07:08:28.448Z,3.9
2022-09-17T07:10:24.959Z,3.8
2022-09-17T07:12:28.880Z,3.6
2022-09-17T07:14:24.441Z,4.2
2022-09-17T07:16:26.818Z,3.5
2022-09-17T07:20:22.846Z,4.2
2022-09-17T07:22:24.948Z,3.6
2022-09-17T07:24:24.005Z,3.9
2022-09-17T07:26:26.174Z,3.6
2022-09-17T07:28:24.849Z,3.7
2022-09-17T07:32:26.321Z,4.1
2022-09-17T07:34:24.035Z,4
2022-09-17T07:36:26.457Z,3.7
2022-09-17T07:38:25.415Z,4.1
2022-09-17T07:42:26.118Z,3.8
2022-09-17T07:44:23.582Z,3.4
2022-09-17T07:46:28.161Z,4
2022-09-17T07:48:27.643Z,4.6
2022-09-17T07:50:22.069Z,3.6
2022-09-17T07:52:27.295Z,3.9
2022-09-17T07:54:26.781Z,3.6
2022-09-17T07:56:30.836Z,3.5
2022-09-17T07:58:27.436Z,3.2
2022-09-17T08:00:27.041Z,3.6
2022-09-17T08:02:24.134Z,3.2
2022-09-17T08:06:27.719Z,4
2022-09-17T08:08:26.344Z,3.1
2022-09-17T08:10:27.584Z,2.9
2022-09-17T08:12:42.644Z,3.5
2022-09-17T08:16:25.198Z,3.4
2022-09-17T08:18:25.556Z,3.3
2022-09-17T08:24:24.095Z,3.6
2022-09-17T08:26:25.997Z,3.2
2022-09-17T08:28:26.040Z,4
2022-09-17T08:30:25.490Z,3.9
2022-09-17T08:32:23.214Z,3.8
2022-09-17T08:34:21.640Z,3.3
2022-09-17T08:36:20.860Z,3.2
2022-09-17T08:38:22.530Z,2.9
2022-09-17T08:40:27.414Z,3.7
2022-09-17T08:42:27.704Z,3.3
2022-09-17T08:44:21.004Z,3.5
2022-09-17T08:46:25.257Z,3.7
2022-09-17T08:48:26.982Z,3.5
2022-09-17T08:50:26.226Z,4
2022-09-17T08:52:28.420Z,3.4
2022-09-17T08:54:23.439Z,3.6
2022-09-17T08:56:24.454Z,3.8
2022-09-17T08:58:29.681Z,3.4
2022-09-17T09:00:26.408Z,4.1
2022-09-17T09:02:21.687Z,3.8
2022-09-17T09:04:26.021Z,3.6
2022-09-17T09:06:26.507Z,4.1
2022-09-17T09:08:25.873Z,3.7
2022-09-17T09:10:26.228Z,3.9
2022-09-17T09:12:26.493Z,4.1
2022-09-17T09:14:20.644Z,3.8
2022-09-17T09:16:25.181Z,3.9
2022-09-17T09:18:23.157Z,4.2
2022-09-17T09:20:24.618Z,3.7
2022-09-17T09:22:24.604Z,3.5
2022-09-17T09:24:24.389Z,4
2022-09-17T09:26:21.744Z,4.2
2022-09-17T09:28:22.241Z,3.7
2022-09-17T09:30:27.310Z,4.1
2022-09-17T09:32:21.190Z,3.3
2022-09-17T09:34:27.427Z,3.4
2022-09-17T09:38:25.950Z,3
2022-09-17T09:40:20.374Z,3.6
2022-09-17T09:42:21.375Z,3.2
2022-09-17T09:44:26.258Z,2.8
2022-09-17T09:46:22.601Z,2.9
2022-09-17T09:48:28.907Z,3.1
2022-09-17T09:50:25.422Z,3.2
2022-09-17T09:52:39.251Z,3.3
2022-09-17T09:54:24.605Z,2.5
2022-09-17T09:56:25.248Z,3.2
2022-09-17T09:58:26.071Z,3
2022-09-17T10:00:21.572Z,3.5
2022-09-17T10:02:25.303Z,3.6
2022-09-17T10:04:23.160Z,3.5
2022-09-17T10:06:31.406Z,3
2022-09-17T10:08:28.276Z,2.9
2022-09-17T10:10:25.488Z,3
2022-09-17T10:12:25.531Z,3.2
2022-09-17T10:14:25.736Z,2.5
2022-09-17T10:16:25.381Z,2.7
2022-09-17T10:18:24.991Z,3.4
2022-09-17T10:20:27.997Z,3.2
2022-09-17T10:24:23.797Z,4.1
2022-09-17T10:26:28.330Z,3.3
2022-09-17T10:28:24.410Z,3.4
2022-09-17T10:30:27.170Z,3.1
2022-09-17T10:34:26.110Z,3.9
2022-09-17T10:36:27.386Z,3.4
2022-09-17T10:38:26.808Z,3.6
2022-09-17T10:40:27.737Z,3.1
2022-09-17T10:42:24.865Z,3.2
2022-09-17T10:44:24.457Z,3.1
2022-09-17T10:46:27.365Z,3.4
2022-09-17T10:52:24.431Z,3.9
2022-09-17T10:54:25.869Z,3.8
2022-09-17T10:56:25.318Z,3.1
2022-09-17T10:58:21.253Z,3.6
2022-09-17T11:02:26.046Z,3.7
2022-09-17T11:04:27.509Z,2.9
2022-09-17T11:06:30.489Z,3.1
2022-09-17T11:08:26.291Z,2.8
2022-09-17T11:10:29.520Z,2.6
2022-09-17T11:12:25.431Z,3.2
2022-09-17T11:14:23.746Z,2.7
2022-09-17T11:16:27.990Z,3.1
2022-09-17T11:18:25.960Z,2.9
2022-09-17T11:20:26.846Z,3.2
2022-09-17T11:22:29.436Z,2.9
2022-09-17T11:24:26.137Z,2.7
2022-09-17T11:26:28.705Z,4.1
2022-09-17T11:28:24.023Z,2.9
2022-09-17T11:30:21.320Z,2.6
2022-09-17T11:32:25.593Z,2.4
2022-09-17T11:34:27.986Z,3.2
2022-09-17T11:36:27.430Z,2.4
2022-09-17T11:38:28.025Z,2.7
2022-09-17T11:40:27.629Z,2.6
2022-09-17T11:42:26.905Z,2.7
2022-09-17T11:44:23.408Z,2.3
2022-09-17T11:48:24.886Z,2.5
2022-09-17T11:50:22.299Z,2.7
2022-09-17T11:52:29.118Z,2.6
2022-09-17T11:54:21.192Z,2.9
2022-09-17T11:56:22.820Z,2.7
2022-09-17T11:58:27.324Z,2.4
2022-09-17T12:00:24.521Z,2.6
2022-09-17T12:02:24.939Z,2.3
2022-09-17T12:04:23.757Z,2.5
2022-09-17T12:06:20.644Z,2
2022-09-17T12:10:27.571Z,2.1
2022-09-17T12:12:53.636Z,2
2022-09-17T12:16:28.452Z,2.4
2022-09-17T12:18:37.559Z,2.5
2022-09-17T12:20:26.547Z,1.9
2022-09-17T12:22:27.786Z,3.3
2022-09-17T12:24:23.344Z,2.9
2022-09-17T12:26:25.107Z,2.4
2022-09-17T12:28:28.238Z,2.5
2022-09-17T12:30:27.795Z,2.3
2022-09-17T12:34:25.421Z,2.7
2022-09-17T12:36:24.677Z,2.6
2022-09-17T12:38:29.788Z,2.8
2022-09-17T12:40:27.976Z,2.5
2022-09-17T12:42:27.872Z,2.9
2022-09-17T12:44:23.812Z,2.5
2022-09-17T12:46:25.993Z,2.6
2022-09-17T12:48:26.440Z,2.3
2022-09-17T12:50:25.857Z,2.4
2022-09-17T12:52:26.912Z,2.3
2022-09-17T12:54:26.261Z,2.4
2022-09-17T12:56:24.706Z,2.7
2022-09-17T12:58:27.946Z,2.5
2022-09-17T13:00:28.265Z,2
2022-09-17T13:02:26.390Z,2.5
2022-09-17T13:04:49.904Z,2.4
2022-09-17T13:06:42.896Z,2.1
2022-09-17T13:08:32.592Z,2.3
2022-09-17T13:10:25.319Z,1.8
2022-09-17T13:12:26.243Z,2
2022-09-17T13:14:24.713Z,2.3
2022-09-17T13:16:27.422Z,2
2022-09-17T13:18:27.475Z,2.6
2022-09-17T13:20:24.192Z,2.2
2022-09-17T13:26:29.267Z,2.3
2022-09-17T13:28:27.631Z,2.7
2022-09-17T13:30:28.961Z,2.8
2022-09-17T13:32:28.756Z,3
2022-09-17T13:34:24.015Z,2.7
2022-09-17T13:38:24.326Z,2.5
2022-09-17T13:40:26.981Z,2.9
2022-09-17T13:42:25.664Z,3
2022-09-17T13:44:21.836Z,2.4
2022-09-17T13:46:24.201Z,2.1
2022-09-17T13:50:28.029Z,2.3
2022-09-17T13:52:25.592Z,2.1
2022-09-17T13:54:26.565Z,1.6
2022-09-17T13:56:24.793Z,1.9
2022-09-17T14:00:26.022Z,2.1
2022-09-17T14:02:30.808Z,2.4
2022-09-17T14:04:24.749Z,2.1
2022-09-17T14:06:26.519Z,2.6
2022-09-17T14:08:26.149Z,2.4
2022-09-17T14:10:26.566Z,3.2
2022-09-17T14:12:31.581Z,2.2
2022-09-17T14:14:25.856Z,2.6
2022-09-17T14:16:26.192Z,2.2
2022-09-17T14:18:27.902Z,2.7
2022-09-17T14:20:27.761Z,2
2022-09-17T14:22:27.539Z,1.9
2022-09-17T14:24:27.944Z,2.5
2022-09-17T14:26:28.252Z,2.1
2022-09-17T14:28:26.583Z,2.2
2022-09-17T14:30:26.544Z,2.6
2022-09-17T14:32:25.704Z,2.1
2022-09-17T14:34:26.008Z,2.9
2022-09-17T14:36:23.142Z,2.3
2022-09-17T14:38:28.652Z,2.8
2022-09-17T14:40:23.047Z,2.6
2022-09-17T14:42:28.560Z,2.7
2022-09-17T14:44:26.486Z,3.8
2022-09-17T14:46:25.825Z,2.6
2022-09-17T14:48:20.714Z,2.3
2022-09-17T14:50:21.113Z,2.2
2022-09-17T14:52:25.457Z,2.4
2022-09-17T14:54:20.323Z,2.1
2022-09-17T14:56:26.824Z,1.8
2022-09-17T14:58:24.529Z,2.3
2022-09-17T15:00:25.299Z,2
2022-09-17T15:02:25.338Z,2.2
2022-09-17T15:04:20.599Z,2.6
2022-09-17T15:06:24.976Z,2.8
2022-09-17T15:08:25.118Z,2.9
2022-09-17T15:10:26.207Z,2.6
2022-09-17T15:12:26.152Z,2.9
2022-09-17T15:14:26.819Z,2.8
2022-09-17T15:18:25.368Z,2.9
2022-09-17T15:20:26.488Z,2.6
2022-09-17T15:22:26.810Z,3
2022-09-17T15:24:25.652Z,2.6
2022-09-17T15:26:27.405Z,3.5
2022-09-17T15:28:24.165Z,2.6
2022-09-17T15:30:29.702Z,3.4
2022-09-17T15:32:29.881Z,2.9
2022-09-17T15:34:24.289Z,2.8
2022-09-17T15:36:28.239Z,3.9
2022-09-17T15:38:28.581Z,3.4
2022-09-17T15:40:23.887Z,3.3
2022-09-17T15:42:23.122Z,3
2022-09-17T15:44:34.647Z,3.3
2022-09-17T15:46:26.711Z,3.1
2022-09-17T15:50:27.199Z,3.9
2022-09-17T15:52:25.518Z,3.8
2022-09-17T15:54:25.690Z,3.2
2022-09-17T15:56:25.178Z,3.1
2022-09-17T15:58:26.028Z,2.8
2022-09-17T16:00:27.638Z,3
2022-09-17T16:02:21.647Z,3.1
2022-09-17T16:04:25.013Z,3.4
2022-09-17T16:06:25.583Z,3.3
2022-09-17T16:08:25.411Z,2.9
2022-09-17T16:10:25.629Z,3
2022-09-17T16:12:28.003Z,3.1
2022-09-17T16:14:26.551Z,3.3
2022-09-17T16:16:25.682Z,3.4
2022-09-17T16:20:25.720Z,3.2
2022-09-17T16:24:28.451Z,3.5
2022-09-17T16:26:25.366Z,3.8
2022-09-17T16:28:24.502Z,3.1
2022-09-17T16:30:27.401Z,3.5
2022-09-17T16:32:25.926Z,3
2022-09-17T16:34:29.025Z,4
2022-09-17T16:36:27.287Z,3.6
2022-09-17T16:38:27.690Z,3.3
2022-09-17T16:40:22.088Z,3.2
2022-09-17T16:44:27.528Z,3.7
2022-09-17T16:46:25.091Z,3
2022-09-17T16:48:24.679Z,3.3
2022-09-17T16:54:25.515Z,2.9
2022-09-17T16:56:22.148Z,3.5
2022-09-17T16:58:20.614Z,4.1
2022-09-17T17:00:27.047Z,3.8
2022-09-17T17:02:28.119Z,4.1
2022-09-17T17:04:23.715Z,4.3
2022-09-17T17:06:21.745Z,5.3
2022-09-17T17:08:27.470Z,4
2022-09-17T17:10:26.253Z,3.9
2022-09-17T17:14:23.371Z,3.4
2022-09-17T17:16:27.222Z,3.5
2022-09-17T17:18:26.234Z,4.1
2022-09-17T17:20:26.247Z,3.7
2022-09-17T17:22:28.709Z,4.3
2022-09-17T17:24:23.074Z,3.8
2022-09-17T17:26:27.103Z,3.7
2022-09-17T17:28:26.949Z,3.3
2022-09-17T17:30:28.935Z,3.8
2022-09-17T17:32:23.708Z,3.7
2022-09-17T17:34:23.063Z,4.3
2022-09-17T17:38:26.217Z,4.4
2022-09-17T17:40:27.576Z,4.2
2022-09-17T17:42:25.022Z,4.5
2022-09-17T17:44:25.687Z,4.4
2022-09-17T17:46:29.832Z,5.3
2022-09-17T17:48:26.570Z,4.6
2022-09-17T17:50:23.990Z,4.9
2022-09-17T17:52:31.568Z,4.7
2022-09-17T17:54:25.733Z,4.4
2022-09-17T17:56:28.165Z,4.6
2022-09-17T17:58:26.830Z,4.5
2022-09-17T18:00:27.542Z,3.9
2022-09-17T18:02:25.413Z,3.6
2022-09-17T18:04:23.439Z,4.1
2022-09-17T18:06:24.538Z,6
2022-09-17T18:08:27.239Z,4.1
2022-09-17T18:10:27.897Z,4.2
2022-09-17T18:12:26.689Z,3.8
2022-09-17T18:14:26.528Z,4.1
2022-09-17T18:16:27.469Z,4
2022-09-17T18:18:24.552Z,4.2
2022-09-17T18:20:24.659Z,4.7
2022-09-17T18:22:24.320Z,4
2022-09-17T18:24:20.779Z,5.1
2022-09-17T18:26:24.420Z,4.4
2022-09-17T18:28:25.449Z,4.1
2022-09-17T18:30:25.476Z,4.7
2022-09-17T18:32:25.272Z,4.3
2022-09-17T18:34:23.770Z,3.8
2022-09-17T18:36:23.846Z,5.1
2022-09-17T18:38:27.853Z,4.4
2022-09-17T18:40:41.157Z,4
2022-09-17T18:42:24.753Z,5.8
2022-09-17T18:44:26.204Z,4.7
2022-09-17T18:46:27.855Z,5.9
2022-09-17T18:48:24.761Z,5.1
2022-09-17T18:50:23.972Z,5.5
2022-09-17T18:52:25.358Z,4.1
2022-09-17T18:54:23.096Z,5.4
2022-09-17T18:56:24.974Z,5.1
2022-09-17T18:58:26.368Z,5
2022-09-17T19:00:21.269Z,4
2022-09-17T19:02:24.161Z,4.4
2022-09-17T19:04:23.371Z,3.9
2022-09-17T19:08:27.612Z,3.6
2022-09-17T19:10:26.595Z,4.1
2022-09-17T19:12:28.561Z,4
2022-09-17T19:14:22.703Z,3.2
2022-09-17T19:16:25.559Z,4.1
2022-09-17T19:18:26.682Z,3.9
2022-09-17T19:20:24.803Z,4.6
2022-09-17T19:22:25.049Z,3.6
2022-09-17T19:24:23.032Z,3.7
2022-09-17T19:28:22.210Z,3.9
2022-09-17T19:30:26.075Z,3.5
2022-09-17T19:32:25.277Z,4.1
2022-09-17T19:34:22.389Z,3.5
2022-09-17T19:36:24.648Z,3.7
2022-09-17T19:40:24.910Z,3.9
2022-09-17T19:42:25.403Z,4.1
2022-09-17T19:44:25.793Z,3.6
2022-09-17T19:46:22.125Z,3.7
2022-09-17T19:50:24.333Z,3.3
2022-09-17T19:52:25.418Z,3.5
2022-09-17T19:54:24.322Z,3.8
2022-09-17T19:56:24.604Z,4.7
2022-09-17T19:58:26.460Z,3.7
2022-09-17T20:00:24.086Z,3.9
2022-09-17T20:02:24.913Z,4
2022-09-17T20:04:22.389Z,3.2
2022-09-17T20:06:24.123Z,4
2022-09-17T20:08:19.708Z,3.3
2022-09-17T20:10:25.311Z,3.5
2022-09-17T20:12:22.799Z,4.5
2022-09-17T20:14:22.008Z,3.8
2022-09-17T20:16:24.097Z,4.5
2022-09-17T20:20:22.582Z,4
2022-09-17T20:22:25.700Z,5
2022-09-17T20:24:22.748Z,4
2022-09-17T20:26:21.698Z,3.9
2022-09-17T20:28:23.296Z,4.1
2022-09-17T20:30:23.914Z,3.9
2022-09-17T20:32:24.633Z,4.6
2022-09-17T20:34:26.731Z,4.7
2022-09-17T20:36:26.939Z,4.4
2022-09-17T20:39:16.510Z,4.2
2022-09-17T20:40:24.604Z,4.4
2022-09-17T20:42:24.817Z,4.3
2022-09-17T20:44:25.126Z,4.9
2022-09-17T20:46:28.603Z,4.3
2022-09-17T20:48:26.167Z,4.6
2022-09-17T20:50:28.115Z,3.7
2022-09-17T20:52:26.213Z,4.5
2022-09-17T20:54:23.533Z,3.8
2022-09-17T20:56:26.849Z,5.3
2022-09-17T20:58:27.440Z,3.9
2022-09-17T21:00:26.311Z,4.2
2022-09-17T21:02:24.663Z,3.8
2022-09-17T21:04:22.870Z,4.4
2022-09-17T21:06:24.307Z,4.3
2022-09-17T21:08:24.835Z,4.2
2022-09-17T21:10:24.569Z,4.6
2022-09-17T21:12:24.307Z,4
2022-09-17T21:14:22.371Z,4.8
2022-09-17T21:18:26.065Z,3.8
2022-09-17T21:22:24.419Z,3.5
2022-09-17T21:24:22.778Z,4.1
2022-09-17T21:26:25.232Z,3.7
2022-09-17T21:28:23.145Z,3.2
2022-09-17T21:30:25.740Z,3.9
2022-09-17T21:34:22.039Z,3.4
2022-09-17T21:36:27.321Z,3.2
2022-09-17T21:40:23.898Z,3.4
2022-09-17T21:42:24.020Z,4.1
2022-09-17T21:44:23.256Z,3.5
2022-09-17T21:46:24.272Z,3.1
2022-09-17T21:48:23.883Z,3.4
2022-09-17T21:50:25.008Z,3.2
2022-09-17T21:52:24.019Z,3.6
2022-09-17T21:54:23.737Z,3.7
2022-09-17T21:56:24.532Z,3.8
2022-09-17T21:58:23.458Z,3.5
2022-09-17T22:02:24.295Z,4.1
2022-09-17T22:04:22.214Z,4
2022-09-17T22:06:25.902Z,3.1
2022-09-17T22:08:24.313Z,3.4
2022-09-17T22:10:22.740Z,3.3
2022-09-17T22:12:28.961Z,3.1
2022-09-17T22:14:27.065Z,2.9
2022-09-17T22:16:25.919Z,3.1
2022-09-17T22:20:24.970Z,3.5
2022-09-17T22:22:21.964Z,3.3
2022-09-17T22:24:22.761Z,3.8
2022-09-17T22:26:22.964Z,3.2
2022-09-17T22:28:29.513Z,3.8
2022-09-17T22:30:26.757Z,3.1
2022-09-17T22:32:28.508Z,3.6
2022-09-17T22:34:19.342Z,3.4
2022-09-17T22:36:23.170Z,3.3
2022-09-17T22:38:24.521Z,3.7
2022-09-17T22:40:24.963Z,3.3
2022-09-17T22:42:25.612Z,3.4
2022-09-17T22:44:24.088Z,3.7
2022-09-17T22:46:24.850Z,3.3
2022-09-17T22:50:29.634Z,3.7
2022-09-17T22:52:26.358Z,3.3
2022-09-17T22:58:25.501Z,3.6
2022-09-17T23:02:24.959Z,3.2
2022-09-17T23:04:25.859Z,4.1
2022-09-17T23:06:27.668Z,3.8
2022-09-17T23:08:23.855Z,3.3
2022-09-17T23:10:26.662Z,3.6
2022-09-17T23:14:23.258Z,3.8
2022-09-17T23:16:25.672Z,4
2022-09-17T23:18:23.719Z,3.6
2022-09-17T23:20:27.128Z,4.2
2022-09-17T23:22:22.401Z,3.7
2022-09-17T23:24:22.214Z,3.5
2022-09-17T23:26:26.644Z,3.9
2022-09-17T23:28:26.808Z,4.1
2022-09-17T23:30:24.352Z,3.6
2022-09-17T23:32:25.524Z,3.2
2022-09-17T23:34:22.710Z,3.4
2022-09-17T23:36:26.741Z,3.8
2022-09-17T23:38:25.774Z,3.5
2022-09-17T23:40:21.652Z,3.8
2022-09-17T23:42:24.647Z,4.3
2022-09-17T23:44:25.185Z,3.5
2022-09-17T23:46:26.260Z,3
2022-09-17T23:48:29.850Z,3.7
2022-09-17T23:50:26.456Z,4.7
2022-09-17T23:52:23.784Z,3.3
2022-09-17T23:56:26.147Z,3.8
2022-09-17T23:58:24.454Z,2.6
